createdAt,value
2019-01-26T00:02:07.902Z,4.47
2019-01-26T00:04:41.695Z,6.70
2019-01-26T00:07:18.628Z,6.43
2019-01-26T00:09:52.857Z,5.20
2019-01-26T00:12:26.973Z,5.40
2019-01-26T00:15:01.306Z,5.57
2019-01-26T00:17:35.247Z,5.63
2019-01-26T00:20:12.039Z,6.17
2019-01-26T00:22:45.620Z,5.30
2019-01-26T00:25:22.408Z,6.80
2019-01-26T00:27:55.966Z,7.90
2019-01-26T00:30:29.814Z,6.63
2019-01-26T00:33:06.616Z,7.03
2019-01-26T00:35:41.322Z,5.97
2019-01-26T00:38:17.174Z,5.83
2019-01-26T00:40:51.971Z,6.30
2019-01-26T00:43:25.418Z,5.70
2019-01-26T00:45:59.668Z,10.60
2019-01-26T00:48:33.673Z,6.10
2019-01-26T00:51:17.098Z,24.00
2019-01-26T00:54:02.220Z,11.23
2019-01-26T00:56:43.605Z,9.87
2019-01-26T00:59:19.864Z,8.27
2019-01-26T01:01:53.692Z,6.47
2019-01-26T01:04:28.730Z,6.53
2019-01-26T01:07:01.948Z,8.77
2019-01-26T01:09:36.426Z,5.90
2019-01-26T01:12:10.876Z,7.20
2019-01-26T01:14:45.860Z,6.77
2019-01-26T01:17:21.191Z,6.90
2019-01-26T01:19:54.832Z,4.80
2019-01-26T01:22:29.421Z,5.60
2019-01-26T01:25:03.259Z,5.57
2019-01-26T01:27:37.218Z,4.83
2019-01-26T01:30:17.531Z,11.07
2019-01-26T01:32:51.534Z,7.40
2019-01-26T01:35:25.173Z,6.57
2019-01-26T01:38:00.388Z,8.33
2019-01-26T01:40:43.539Z,6.93
2019-01-26T01:43:17.464Z,7.63
2019-01-26T01:46:00.852Z,7.53
2019-01-26T01:48:35.401Z,5.83
2019-01-26T01:51:12.426Z,6.33
2019-01-26T01:53:47.283Z,6.50
2019-01-26T01:56:22.252Z,5.67
2019-01-26T01:58:57.137Z,5.80
2019-01-26T02:01:30.699Z,6.00
2019-01-26T02:04:07.070Z,5.37
2019-01-26T02:06:44.181Z,7.10
2019-01-26T02:09:17.982Z,6.73
2019-01-26T02:11:51.939Z,7.07
2019-01-26T02:14:25.925Z,7.30
2019-01-26T02:17:02.289Z,6.03
2019-01-26T02:19:36.928Z,5.90
2019-01-26T02:22:14.260Z,5.80
2019-01-26T02:24:48.110Z,7.73
2019-01-26T02:27:21.947Z,6.77
2019-01-26T02:29:55.919Z,7.17
2019-01-26T02:32:29.572Z,6.33
2019-01-26T02:35:05.583Z,5.87
2019-01-26T02:37:42.933Z,5.77
2019-01-26T02:40:19.785Z,5.30
2019-01-26T02:42:53.410Z,5.47
2019-01-26T02:45:27.765Z,5.77
2019-01-26T02:48:01.140Z,5.13
2019-01-26T02:50:35.506Z,6.30
2019-01-26T02:53:09.078Z,5.73
2019-01-26T02:55:44.487Z,4.10
2019-01-26T02:58:18.126Z,4.00
2019-01-26T03:00:53.946Z,4.57
2019-01-26T03:03:27.522Z,3.50
2019-01-26T03:06:01.573Z,3.83
2019-01-26T03:08:35.781Z,3.47
2019-01-26T03:11:09.784Z,3.20
2019-01-26T03:13:43.513Z,4.30
2019-01-26T03:16:25.706Z,3.40
2019-01-26T03:18:59.320Z,3.70
2019-01-26T03:21:33.403Z,4.50
2019-01-26T03:24:07.282Z,3.43
2019-01-26T03:26:41.064Z,3.07
2019-01-26T03:29:14.690Z,3.27
2019-01-26T03:31:48.741Z,3.30
2019-01-26T03:34:22.347Z,4.07
2019-01-26T03:36:59.128Z,3.57
2019-01-26T03:39:32.932Z,5.10
2019-01-26T03:42:07.228Z,4.37
2019-01-26T03:44:40.556Z,4.30
2019-01-26T03:47:15.333Z,4.60
2019-01-26T03:49:48.966Z,6.90
2019-01-26T03:52:23.132Z,4.20
2019-01-26T03:54:59.127Z,3.57
2019-01-26T03:57:33.443Z,7.30
2019-01-26T04:00:11.813Z,5.20
2019-01-26T04:02:51.151Z,4.70
2019-01-26T04:05:27.675Z,4.67
2019-01-26T04:08:02.875Z,3.00
2019-01-26T04:10:42.021Z,3.17
2019-01-26T04:13:15.997Z,4.23
2019-01-26T04:15:49.595Z,5.80
2019-01-26T04:18:23.686Z,3.80
2019-01-26T04:20:57.347Z,3.93
2019-01-26T04:23:31.386Z,4.80
2019-01-26T04:26:08.675Z,5.73
2019-01-26T04:28:42.332Z,5.27
2019-01-26T04:31:16.256Z,4.47
2019-01-26T04:33:50.380Z,4.20
2019-01-26T04:36:26.125Z,4.30
2019-01-26T04:39:00.082Z,5.60
2019-01-26T04:41:33.712Z,5.63
2019-01-26T04:44:12.841Z,7.27
2019-01-26T04:46:46.692Z,5.70
2019-01-26T04:49:20.826Z,5.10
2019-01-26T04:51:56.753Z,4.43
2019-01-26T04:54:30.808Z,4.53
2019-01-26T04:57:04.411Z,5.20
2019-01-26T04:59:38.343Z,6.57
2019-01-26T05:02:14.381Z,6.23
2019-01-26T05:04:48.304Z,10.97
2019-01-26T05:07:21.966Z,4.70
2019-01-26T05:09:55.695Z,4.80
2019-01-26T05:12:29.731Z,4.80
2019-01-26T05:15:03.624Z,7.93
2019-01-26T05:17:39.377Z,8.67
2019-01-26T05:20:17.062Z,5.40
2019-01-26T05:22:53.132Z,4.77
2019-01-26T05:25:27.003Z,4.47
2019-01-26T05:28:00.548Z,4.80
2019-01-26T05:30:35.517Z,4.80
2019-01-26T05:33:09.385Z,4.30
2019-01-26T05:35:45.649Z,4.93
2019-01-26T05:38:19.253Z,5.40
2019-01-26T05:40:53.071Z,5.00
2019-01-26T05:43:26.824Z,6.23
2019-01-26T05:46:01.770Z,5.60
2019-01-26T05:48:35.673Z,7.50
2019-01-26T05:51:10.376Z,11.80
2019-01-26T05:53:46.540Z,10.17
2019-01-26T05:56:20.591Z,8.27
2019-01-26T05:58:57.882Z,7.40
2019-01-26T06:01:31.771Z,9.33
2019-01-26T06:04:05.628Z,8.00
2019-01-26T06:06:39.486Z,6.23
2019-01-26T06:09:15.555Z,9.60
2019-01-26T06:11:49.563Z,7.47
2019-01-26T06:14:32.102Z,7.50
2019-01-26T06:17:06.527Z,9.00
2019-01-26T06:19:40.138Z,9.67
2019-01-26T06:22:14.079Z,9.20
2019-01-26T06:24:47.639Z,11.27
2019-01-26T06:27:22.009Z,9.07
2019-01-26T06:29:55.682Z,9.43
2019-01-26T06:32:29.599Z,8.13
2019-01-26T06:35:03.257Z,8.70
2019-01-26T06:37:37.499Z,8.60
2019-01-26T06:40:13.779Z,10.97
2019-01-26T06:42:47.552Z,10.17
2019-01-26T06:45:26.353Z,9.27
2019-01-26T06:48:02.321Z,10.27
2019-01-26T06:50:35.759Z,7.33
2019-01-26T06:53:09.570Z,7.00
2019-01-26T06:55:43.264Z,8.80
2019-01-26T06:58:17.424Z,8.50
2019-01-26T07:00:53.918Z,8.63
2019-01-26T07:03:28.048Z,10.07
2019-01-26T07:06:18.004Z,11.40
2019-01-26T07:08:52.051Z,10.07
2019-01-26T07:11:25.687Z,9.40
2019-01-26T07:14:01.840Z,10.23
2019-01-26T07:16:36.704Z,12.40
2019-01-26T07:19:10.444Z,11.33
2019-01-26T07:21:45.364Z,10.60
2019-01-26T07:24:19.224Z,11.03
2019-01-26T07:26:53.285Z,11.43
2019-01-26T07:29:27.064Z,11.90
2019-01-26T07:32:00.858Z,11.40
2019-01-26T07:34:35.908Z,12.10
2019-01-26T07:37:10.402Z,13.43
2019-01-26T07:39:44.341Z,11.30
2019-01-26T07:42:18.414Z,11.80
2019-01-26T07:44:52.270Z,11.83
2019-01-26T07:47:26.729Z,14.37
2019-01-26T07:50:00.965Z,10.90
2019-01-26T07:52:35.550Z,12.10
2019-01-26T07:55:10.748Z,15.43
2019-01-26T07:57:46.295Z,16.80
2019-01-26T08:00:27.260Z,13.70
2019-01-26T08:03:01.537Z,14.77
2019-01-26T08:05:36.166Z,15.47
2019-01-26T08:08:10.425Z,15.33
2019-01-26T08:10:44.973Z,16.40
2019-01-26T08:13:19.411Z,17.87
2019-01-26T08:15:53.679Z,17.27
2019-01-26T08:18:29.393Z,19.00
2019-01-26T08:21:03.189Z,20.90
2019-01-26T08:23:37.088Z,20.57
2019-01-26T08:26:13.167Z,18.07
2019-01-26T08:28:49.296Z,15.07
2019-01-26T08:31:25.040Z,15.43
2019-01-26T08:33:59.248Z,17.87
2019-01-26T08:36:35.303Z,15.07
2019-01-26T08:39:11.161Z,14.50
2019-01-26T08:41:51.729Z,13.23
2019-01-26T08:44:26.305Z,12.50
2019-01-26T08:47:03.139Z,12.63
2019-01-26T08:49:37.796Z,13.00
2019-01-26T08:52:13.093Z,15.00
2019-01-26T08:54:47.770Z,11.90
2019-01-26T08:57:22.568Z,13.93
2019-01-26T08:59:57.034Z,14.77
2019-01-26T09:02:50.068Z,11.10
2019-01-26T09:05:25.838Z,10.73
2019-01-26T09:07:59.712Z,11.23
2019-01-26T09:10:34.304Z,14.87
2019-01-26T09:13:09.610Z,14.37
2019-01-26T09:15:45.850Z,12.63
2019-01-26T09:18:20.522Z,11.30
2019-01-26T09:20:55.097Z,11.60
2019-01-26T09:23:30.091Z,14.43
2019-01-26T09:26:07.794Z,11.80
2019-01-26T09:28:41.831Z,14.27
2019-01-26T09:31:19.771Z,12.20
2019-01-26T09:33:57.819Z,12.03
2019-01-26T09:36:32.107Z,13.67
2019-01-26T09:39:20.555Z,12.83
2019-01-26T09:41:54.337Z,13.93
2019-01-26T09:44:28.755Z,14.23
2019-01-26T09:47:04.814Z,15.00
2019-01-26T09:49:39.696Z,14.80
2019-01-26T09:52:14.715Z,16.27
2019-01-26T09:54:52.292Z,14.60
2019-01-26T09:57:31.232Z,18.17
2019-01-26T10:00:05.685Z,16.13
2019-01-26T10:02:40.591Z,15.83
2019-01-26T10:05:24.249Z,14.13
2019-01-26T10:07:59.931Z,14.53
2019-01-26T10:10:34.048Z,16.93
2019-01-26T10:13:09.851Z,15.53
2019-01-26T10:15:44.491Z,16.87
2019-01-26T10:18:20.180Z,16.63
2019-01-26T10:20:53.821Z,18.20
2019-01-26T10:23:29.238Z,15.73
2019-01-26T10:26:06.278Z,15.10
2019-01-26T10:28:40.584Z,16.33
2019-01-26T10:31:15.569Z,16.33
2019-01-26T10:33:50.832Z,14.90
2019-01-26T10:36:48.546Z,13.37
2019-01-26T10:39:24.665Z,13.80
2019-01-26T10:42:22.738Z,14.37
2019-01-26T10:44:57.787Z,15.87
2019-01-26T10:47:33.196Z,14.90
2019-01-26T10:50:08.779Z,14.43
2019-01-26T10:52:44.062Z,16.70
2019-01-26T10:55:21.157Z,13.23
2019-01-26T10:57:53.559Z,11.60
2019-01-26T11:00:28.091Z,14.97
2019-01-26T11:03:04.654Z,16.43
2019-01-26T11:05:42.468Z,14.77
2019-01-26T11:08:21.844Z,16.90
2019-01-26T11:10:55.783Z,21.63
2019-01-26T11:13:30.277Z,16.80
2019-01-26T11:16:05.983Z,14.93
2019-01-26T11:18:41.510Z,13.67
2019-01-26T11:21:22.487Z,15.13
2019-01-26T11:23:58.067Z,13.10
2019-01-26T11:26:32.819Z,17.33
2019-01-26T11:29:07.422Z,13.67
2019-01-26T11:31:44.997Z,13.67
2019-01-26T11:34:20.995Z,14.93
2019-01-26T11:36:55.896Z,13.97
2019-01-26T11:39:30.671Z,15.53
2019-01-26T11:42:05.465Z,10.50
2019-01-26T11:44:41.480Z,12.57
2019-01-26T11:47:20.688Z,13.23
2019-01-26T11:50:02.595Z,12.70
2019-01-26T11:52:38.415Z,14.40
2019-01-26T11:55:34.503Z,12.87
2019-01-26T11:58:12.555Z,15.67
2019-01-26T12:01:04.885Z,12.23
2019-01-26T12:03:54.171Z,14.13
2019-01-26T12:06:39.781Z,13.43
2019-01-26T12:09:17.683Z,6.53
2019-01-26T12:11:53.100Z,8.50
2019-01-26T12:14:28.551Z,13.10
2019-01-26T12:17:05.059Z,7.13
2019-01-26T12:19:40.343Z,8.57
2019-01-26T12:22:18.907Z,10.70
2019-01-26T12:24:56.424Z,8.20
2019-01-26T12:27:35.963Z,6.50
2019-01-26T12:30:12.306Z,7.50
2019-01-26T12:32:46.870Z,6.40
2019-01-26T12:35:23.896Z,7.57
2019-01-26T12:37:58.871Z,9.63
2019-01-26T12:40:33.510Z,7.80
2019-01-26T12:43:07.754Z,8.97
2019-01-26T12:45:45.848Z,9.27
2019-01-26T12:48:25.090Z,8.07
2019-01-26T12:51:04.888Z,7.57
2019-01-26T12:53:41.411Z,7.40
2019-01-26T12:56:16.526Z,8.83
2019-01-26T12:58:52.047Z,8.53
2019-01-26T13:01:28.063Z,7.50
2019-01-26T13:04:02.467Z,7.23
2019-01-26T13:06:37.067Z,9.20
2019-01-26T13:09:13.376Z,10.50
2019-01-26T13:11:48.811Z,6.57
2019-01-26T13:14:27.917Z,8.23
2019-01-26T13:17:02.717Z,11.03
2019-01-26T13:19:37.439Z,9.73
2019-01-26T13:22:11.257Z,9.03
2019-01-26T13:24:52.208Z,11.80
2019-01-26T13:27:27.614Z,9.67
2019-01-26T13:30:04.001Z,10.97
2019-01-26T13:32:38.810Z,10.57
2019-01-26T13:35:14.567Z,11.93
2019-01-26T13:37:49.464Z,11.83
2019-01-26T13:40:23.551Z,11.10
2019-01-26T13:42:57.632Z,11.57
2019-01-26T13:45:32.055Z,13.13
2019-01-26T13:48:07.625Z,11.10
2019-01-26T13:50:41.926Z,10.90
2019-01-26T13:53:16.114Z,12.37
2019-01-26T13:55:50.290Z,11.20
2019-01-26T13:58:25.266Z,12.03
2019-01-26T14:00:59.231Z,12.00
2019-01-26T14:03:34.395Z,10.50
2019-01-26T14:06:09.295Z,9.83
2019-01-26T14:08:45.927Z,11.30
2019-01-26T14:11:20.411Z,10.37
2019-01-26T14:13:55.219Z,9.83
2019-01-26T14:16:37.110Z,11.17
2019-01-26T14:19:12.333Z,9.67
2019-01-26T14:21:48.564Z,9.70
2019-01-26T14:24:23.124Z,9.40
2019-01-26T14:26:58.757Z,10.47
2019-01-26T14:29:37.999Z,11.00
2019-01-26T14:32:12.303Z,12.30
2019-01-26T14:34:47.429Z,11.90
2019-01-26T14:37:21.288Z,12.40
2019-01-26T14:39:59.299Z,11.37
2019-01-26T14:42:33.790Z,11.83
2019-01-26T14:45:10.226Z,11.33
2019-01-26T14:47:47.608Z,10.87
2019-01-26T14:50:22.923Z,12.50
2019-01-26T14:52:59.915Z,12.73
2019-01-26T14:55:36.403Z,13.03
2019-01-26T14:58:14.194Z,12.83
2019-01-26T15:00:48.558Z,12.80
2019-01-26T15:03:22.569Z,11.73
2019-01-26T15:05:56.916Z,14.17
2019-01-26T15:08:30.938Z,14.40
2019-01-26T15:11:08.065Z,17.33
2019-01-26T15:13:42.292Z,14.90
2019-01-26T15:16:17.094Z,14.77
2019-01-26T15:18:52.245Z,14.30
2019-01-26T15:21:27.509Z,16.63
2019-01-26T15:24:02.920Z,14.00
2019-01-26T15:26:43.427Z,18.07
2019-01-26T15:29:23.692Z,16.00
2019-01-26T15:31:58.629Z,16.83
2019-01-26T15:34:34.445Z,16.60
2019-01-26T15:37:10.543Z,17.33
2019-01-26T15:39:47.886Z,15.87
2019-01-26T15:42:21.903Z,16.03
2019-01-26T15:44:56.426Z,20.17
2019-01-26T15:47:31.307Z,18.87
2019-01-26T15:50:13.035Z,18.80
2019-01-26T15:52:45.526Z,18.90
2019-01-26T15:55:25.863Z,21.37
2019-01-26T15:58:02.091Z,19.90
2019-01-26T16:00:42.034Z,19.27
2019-01-26T16:03:16.530Z,21.03
2019-01-26T16:05:51.256Z,23.43
2019-01-26T16:08:25.810Z,28.63
2019-01-26T16:11:01.427Z,27.87
2019-01-26T16:13:43.900Z,26.77
2019-01-26T16:16:18.994Z,24.80
2019-01-26T16:18:53.096Z,42.00
2019-01-26T16:21:27.815Z,24.50
2019-01-26T16:24:02.137Z,23.23
2019-01-26T16:26:37.134Z,24.50
2019-01-26T16:29:13.209Z,24.47
2019-01-26T16:31:47.814Z,24.67
2019-01-26T16:34:23.084Z,29.30
2019-01-26T16:36:59.823Z,27.90
2019-01-26T16:39:35.032Z,28.03
2019-01-26T16:42:11.118Z,29.90
2019-01-26T16:44:47.952Z,30.77
2019-01-26T16:47:22.051Z,23.70
2019-01-26T16:50:04.195Z,22.73
2019-01-26T16:52:37.895Z,24.37
2019-01-26T16:55:17.193Z,22.20
2019-01-26T16:57:52.985Z,24.40
2019-01-26T17:00:53.540Z,20.63
2019-01-26T17:03:29.006Z,20.23
2019-01-26T17:06:03.579Z,20.17
2019-01-26T17:08:40.161Z,22.13
2019-01-26T17:11:15.872Z,20.47
2019-01-26T17:13:52.732Z,23.23
2019-01-26T17:16:27.800Z,22.93
2019-01-26T17:19:03.458Z,24.27
2019-01-26T17:21:39.095Z,20.63
2019-01-26T17:24:13.358Z,22.77
2019-01-26T17:26:52.758Z,24.23
2019-01-26T17:29:25.264Z,23.60
2019-01-26T17:32:00.410Z,23.77
2019-01-26T17:34:37.699Z,33.23
2019-01-26T17:37:15.973Z,23.83
2019-01-26T17:39:50.575Z,23.03
2019-01-26T17:42:24.921Z,25.23
2019-01-26T17:44:59.312Z,22.93
2019-01-26T17:47:33.425Z,22.50
2019-01-26T17:50:09.251Z,24.57
2019-01-26T17:52:48.324Z,23.87
2019-01-26T17:55:23.748Z,22.27
2019-01-26T17:57:58.643Z,23.07
2019-01-26T18:00:54.831Z,24.30
2019-01-26T18:03:30.199Z,22.20
2019-01-26T18:06:06.041Z,18.50
2019-01-26T18:08:47.568Z,15.60
2019-01-26T18:11:24.059Z,14.87
2019-01-26T18:13:58.371Z,14.53
2019-01-26T18:16:33.285Z,16.20
2019-01-26T18:19:07.745Z,15.40
2019-01-26T18:21:43.077Z,15.13
2019-01-26T18:24:19.060Z,14.73
2019-01-26T18:26:59.089Z,15.83
2019-01-26T18:29:33.845Z,17.77
2019-01-26T18:32:08.655Z,14.53
2019-01-26T18:34:44.057Z,17.47
2019-01-26T18:37:18.460Z,15.27
2019-01-26T18:39:52.628Z,16.57
2019-01-26T18:42:27.812Z,21.00
2019-01-26T18:45:02.687Z,22.47
2019-01-26T18:47:40.367Z,26.07
2019-01-26T18:50:21.312Z,26.50
2019-01-26T18:52:56.719Z,28.40
2019-01-26T18:55:32.755Z,29.07
2019-01-26T18:58:08.726Z,26.67
2019-01-26T19:00:48.300Z,29.30
2019-01-26T19:04:02.865Z,32.30
2019-01-26T19:06:37.334Z,32.43
2019-01-26T19:09:13.665Z,35.23
2019-01-26T19:11:47.832Z,38.00
2019-01-26T19:14:22.756Z,37.23
2019-01-26T19:16:57.997Z,37.20
2019-01-26T19:19:35.445Z,38.80
2019-01-26T19:22:10.866Z,30.27
2019-01-26T19:24:47.356Z,26.73
2019-01-26T19:27:23.805Z,25.77
2019-01-26T19:30:00.526Z,26.63
2019-01-26T19:32:37.576Z,24.33
2019-01-26T19:35:13.215Z,29.60
2019-01-26T19:37:47.323Z,31.93
2019-01-26T19:40:23.408Z,31.70
2019-01-26T19:42:58.281Z,31.43
2019-01-26T19:45:33.721Z,31.87
2019-01-26T19:48:07.723Z,35.90
2019-01-26T19:50:42.130Z,36.57
2019-01-26T19:53:18.076Z,38.97
2019-01-26T19:55:53.152Z,33.87
2019-01-26T19:58:28.945Z,40.63
2019-01-26T20:01:03.673Z,46.37
2019-01-26T20:03:38.049Z,40.33
2019-01-26T20:06:19.568Z,35.63
2019-01-26T20:08:53.643Z,31.67
2019-01-26T20:11:28.089Z,31.70
2019-01-26T20:14:02.916Z,31.07
2019-01-26T20:16:37.720Z,34.97
2019-01-26T20:19:14.856Z,34.60
2019-01-26T20:21:53.566Z,35.07
2019-01-26T20:24:30.696Z,35.77
2019-01-26T20:27:08.402Z,35.67
2019-01-26T20:29:46.451Z,37.77
2019-01-26T20:32:21.284Z,43.47
2019-01-26T20:34:56.045Z,59.83
2019-01-26T20:37:30.834Z,59.83
2019-01-26T20:40:10.154Z,63.43
2019-01-26T20:42:47.409Z,64.33
2019-01-26T20:45:24.239Z,69.03
2019-01-26T20:47:58.862Z,65.03
2019-01-26T20:50:33.445Z,68.90
2019-01-26T20:53:08.322Z,69.10
2019-01-26T20:55:43.214Z,72.17
2019-01-26T20:58:21.134Z,69.73
2019-01-26T21:00:55.757Z,53.73
2019-01-26T21:03:30.845Z,56.13
2019-01-26T21:06:04.882Z,53.60
2019-01-26T21:08:38.868Z,60.47
2019-01-26T21:11:15.669Z,64.27
2019-01-26T21:13:50.263Z,63.20
2019-01-26T21:16:24.221Z,62.80
2019-01-26T21:18:58.609Z,55.73
2019-01-26T21:21:33.189Z,49.10
2019-01-26T21:24:11.009Z,48.10
2019-01-26T21:26:44.602Z,49.90
2019-01-26T21:29:18.704Z,48.20
2019-01-26T21:31:53.076Z,47.10
2019-01-26T21:34:27.658Z,48.00
2019-01-26T21:37:02.625Z,46.93
2019-01-26T21:39:37.250Z,50.77
2019-01-26T21:42:11.200Z,54.30
2019-01-26T21:44:45.947Z,50.77
2019-01-26T21:47:22.237Z,51.83
2019-01-26T21:49:56.382Z,48.73
2019-01-26T21:52:31.495Z,49.47
2019-01-26T21:55:06.699Z,41.03
2019-01-26T21:57:40.961Z,40.80
2019-01-26T22:00:20.042Z,41.50
2019-01-26T22:02:56.545Z,40.10
2019-01-26T22:05:32.593Z,40.00
2019-01-26T22:08:06.785Z,37.67
2019-01-26T22:10:40.992Z,38.30
2019-01-26T22:13:14.667Z,36.50
2019-01-26T22:15:49.243Z,35.03
2019-01-26T22:18:23.017Z,33.13
2019-01-26T22:20:57.141Z,33.20
2019-01-26T22:23:31.708Z,34.07
2019-01-26T22:26:06.973Z,30.50
2019-01-26T22:28:43.044Z,32.07
2019-01-26T22:31:17.291Z,27.57
2019-01-26T22:33:51.917Z,25.37
2019-01-26T22:36:27.430Z,25.93
2019-01-26T22:39:02.801Z,27.10
2019-01-26T22:41:38.631Z,24.43
2019-01-26T22:44:15.902Z,22.40
2019-01-26T22:46:50.547Z,23.77
2019-01-26T22:49:25.268Z,25.43
2019-01-26T22:51:59.456Z,26.00
2019-01-26T22:54:33.261Z,23.77
2019-01-26T22:57:07.491Z,26.73
2019-01-26T22:59:43.479Z,26.77
2019-01-26T23:02:17.835Z,25.37
2019-01-26T23:05:19.800Z,24.57
2019-01-26T23:08:00.072Z,23.83
2019-01-26T23:11:07.904Z,26.13
2019-01-26T23:14:08.921Z,27.30
2019-01-26T23:17:11.831Z,27.30
2019-01-26T23:20:07.631Z,23.20
2019-01-26T23:23:03.327Z,23.23
2019-01-26T23:26:35.242Z,19.63
2019-01-26T23:29:53.033Z,20.67
2019-01-26T23:32:27.668Z,17.93
2019-01-26T23:35:01.353Z,16.80
2019-01-26T23:37:35.603Z,16.50
2019-01-26T23:40:11.520Z,17.13
2019-01-26T23:42:46.084Z,14.20
2019-01-26T23:45:20.105Z,16.00
2019-01-26T23:47:56.104Z,16.97
2019-01-26T23:50:32.091Z,15.67
2019-01-26T23:53:05.997Z,16.07
2019-01-26T23:55:42.129Z,15.53
2019-01-26T23:58:16.475Z,15.60
